Time;durP1;ratioP1;P1;durP2;ratioP2;P2;SDS_P1;SDS_P2;PMS_P1;PMS_P2;Temp;Humidity;BMP_temperature;BMP_pressure;BME280_temperature;BME280_humidity;BME280_pressure;Samples;Min_cycle;Max_cycle;Signal;HPM_P1;HPM_P2
2022/09/09 00:02:20;;;;;;;10.20;5.70;;;;;;;11.42;56.88;101096.89;1780355;80;21048;-72
2022/09/09 00:05:02;;;;;;;10.20;5.00;;;;;;;11.40;57.02;101100.34;1780980;79;21076;-72
2022/09/09 00:07:43;;;;;;;9.20;5.55;;;;;;;11.38;57.05;101098.95;1780630;80;21026;-73
2022/09/09 00:10:30;;;;;;;7.83;4.55;;;;;;;11.36;57.05;101094.41;1780846;80;20966;-72
2022/09/09 00:13:25;;;;;;;9.18;5.10;;;;;;;11.34;57.03;101091.16;1781229;79;21181;-70
2022/09/09 00:16:02;;;;;;;9.18;4.97;;;;;;;11.32;57.05;101087.91;1780387;80;21604;-72
2022/09/09 00:18:52;;;;;;;9.08;5.37;;;;;;;11.33;57.19;101083.67;1780290;80;20977;-72
2022/09/09 00:21:19;;;;;;;10.18;5.42;;;;;;;11.31;56.99;101090.31;1780541;80;21045;-73
2022/09/09 00:23:53;;;;;;;10.35;5.78;;;;;;;11.31;56.91;101090.31;1780338;80;20994;-71
2022/09/09 00:26:42;;;;;;;9.45;5.65;;;;;;;11.30;57.13;101089.52;1787050;79;21171;-73
2022/09/09 00:29:35;;;;;;;8.38;5.05;;;;;;;11.27;57.29;101096.16;1809077;79;21050;-71
2022/09/09 00:32:16;;;;;;;10.38;5.55;;;;;;;11.25;57.25;101096.12;1776977;79;20951;-72
2022/09/09 00:35:05;;;;;;;9.58;5.75;;;;;;;11.21;57.15;101106.50;1809523;79;21003;-71
2022/09/09 00:37:32;;;;;;;10.63;5.62;;;;;;;11.20;57.04;101109.44;1805877;79;21040;-73
2022/09/09 00:40:02;;;;;;;8.18;4.90;;;;;;;11.19;57.12;101113.18;1809449;79;21317;-72
2022/09/09 00:42:44;;;;;;;10.35;5.37;;;;;;;11.18;57.08;101115.55;1784528;79;20992;-73
2022/09/09 00:45:32;;;;;;;9.00;5.33;;;;;;;11.17;57.11;101124.64;1809581;79;21000;-72
2022/09/09 00:47:59;;;;;;;9.20;4.70;;;;;;;11.14;57.15;101123.79;1808156;79;21039;-74
2022/09/09 00:50:53;;;;;;;10.53;4.97;;;;;;;11.12;57.12;101121.87;1809510;79;20955;-73
2022/09/09 00:53:34;;;;;;;9.10;4.83;;;;;;;11.10;56.92;101128.02;1809829;79;21116;-72
2022/09/09 00:56:18;;;;;;;9.45;5.30;;;;;;;11.08;56.91;101126.11;1809772;79;21054;-73
2022/09/09 00:59:36;;;;;;;7.92;4.97;;;;;;;11.07;56.92;101132.52;1809473;79;21031;-73
2022/09/09 01:02:03;;;;;;;8.90;5.35;;;;;;;11.06;56.93;101143.75;1809395;79;20961;-73
2022/09/09 01:04:34;;;;;;;8.00;5.25;;;;;;;11.07;56.85;101144.02;1808749;79;20956;-73
2022/09/09 01:07:17;;;;;;;8.45;5.50;;;;;;;11.08;56.76;101150.97;1809314;79;21080;-73
2022/09/09 01:09:56;;;;;;;8.83;5.40;;;;;;;11.09;56.78;101144.59;1809592;79;20988;-73
2022/09/09 01:12:43;;;;;;;8.23;5.20;;;;;;;11.10;56.69;101149.41;1809339;79;21510;-72
2022/09/09 01:15:20;;;;;;;8.23;4.95;;;;;;;11.08;56.71;101150.97;1809416;79;21439;-73
2022/09/09 01:18:01;;;;;;;8.83;5.62;;;;;;;11.07;56.84;101157.92;1809387;79;20979;-72
2022/09/09 01:20:44;;;;;;;7.85;4.78;;;;;;;11.02;57.04;101158.63;1808760;79;21145;-73
2022/09/09 01:23:36;;;;;;;8.90;5.08;;;;;;;11.01;57.05;101152.48;1809309;79;27276;-72
2022/09/09 01:26:34;;;;;;;7.75;4.92;;;;;;;10.99;57.13;101146.59;1758375;81;21027;-71
2022/09/09 01:29:06;;;;;;;8.15;5.25;;;;;;;10.90;57.34;101152.59;1794394;78;20991;-72
2022/09/09 01:31:54;;;;;;;8.05;4.78;;;;;;;10.84;57.56;101157.05;1824450;78;21046;-73
2022/09/09 01:34:21;;;;;;;7.62;4.92;;;;;;;10.80;57.57;101157.25;1795589;78;21268;-73
2022/09/09 01:36:59;;;;;;;8.38;5.33;;;;;;;10.74;57.52;101156.35;1758862;81;21011;-73
2022/09/09 01:39:26;;;;;;;8.38;5.35;;;;;;;10.73;57.64;101152.60;1794034;78;21043;-73
2022/09/09 01:41:58;;;;;;;9.35;5.47;;;;;;;10.75;57.71;101151.81;1793231;79;21571;-74
2022/09/09 01:44:25;;;;;;;8.30;5.10;;;;;;;10.73;57.74;101143.25;1794678;78;21056;-73
2022/09/09 01:46:52;;;;;;;11.73;5.83;;;;;;;10.70;57.83;101142.40;1793211;80;21218;-73
2022/09/09 01:49:21;;;;;;;9.80;5.33;;;;;;;10.70;57.78;101150.41;1792893;80;21006;-71
2022/09/09 01:51:55;;;;;;;9.35;5.33;;;;;;;10.70;57.64;101153.09;1825550;78;20998;-73
2022/09/09 01:54:26;;;;;;;9.60;4.90;;;;;;;10.67;57.71;101151.70;1809442;79;21003;-73
2022/09/09 01:57:27;;;;;;;8.45;5.17;;;;;;;10.64;57.78;101143.37;1793128;80;21052;-72
2022/09/09 02:00:12;;;;;;;7.47;4.85;;;;;;;10.58;57.95;101146.47;1793124;79;21298;-73
2022/09/09 02:03:01;;;;;;;8.38;5.00;;;;;;;10.53;58.10;101145.87;1825398;78;21058;-73
2022/09/09 02:05:39;;;;;;;8.40;5.08;;;;;;;10.50;58.29;101140.21;1824260;78;20975;-72
2022/09/09 02:08:27;;;;;;;8.35;5.10;;;;;;;10.42;58.60;101142.73;1792003;80;20972;-73
2022/09/09 02:11:11;;;;;;;9.38;5.50;;;;;;;10.41;58.67;101149.13;1793192;79;21067;-72
2022/09/09 02:13:45;;;;;;;10.25;5.35;;;;;;;10.43;58.69;101140.37;1792176;80;21782;-73
2022/09/09 02:16:27;;;;;;;8.93;5.08;;;;;;;10.43;58.72;101140.86;1793071;80;20939;-72
2022/09/09 02:18:59;;;;;;;;;;;;;;;10.42;58.73;101142.73;1764329;81;20993;-72
2022/09/09 02:21:29;;;;;;;8.60;4.78;;;;;;;10.40;58.73;101147.52;1779053;78;20156;-72
2022/09/09 02:23:59;;;;;;;9.28;5.00;;;;;;;10.32;58.77;101148.70;1825637;78;21079;-72
2022/09/09 02:26:26;;;;;;;7.53;4.35;;;;;;;10.24;59.09;101141.60;1825652;78;21264;-73
2022/09/09 02:28:57;;;;;;;8.10;4.67;;;;;;;10.17;59.43;101134.23;1816111;78;21010;-72
2022/09/09 02:31:24;;;;;;;8.83;5.00;;;;;;;10.09;59.75;101134.11;1824202;78;21071;-74
2022/09/09 02:33:57;;;;;;;10.93;5.50;;;;;;;10.04;59.94;101137.51;1794178;80;20936;-72
2022/09/09 02:36:26;;;;;;;12.20;5.70;;;;;;;10.04;60.05;101138.04;1827527;78;21298;-73
2022/09/09 02:38:54;;;;;;;11.08;6.90;;;;;;;10.07;60.12;101138.37;1826505;78;21103;-72
2022/09/09 02:41:28;;;;;;;15.03;7.95;;;;;;;10.07;60.14;101137.56;1826144;78;21444;-72
2022/09/09 02:43:56;;;;;;;13.58;8.08;;;;;;;10.06;60.19;101136.73;1811680;78;20938;-72
2022/09/09 02:46:49;;;;;;;11.18;6.65;;;;;;;10.07;60.19;101128.22;1793394;78;20976;-73
2022/09/09 02:49:46;;;;;;;;;;;;;;;10.06;60.17;101127.39;1777745;80;21450;-72
2022/09/09 02:52:18;;;;;;;10.78;6.47;;;;;;;10.03;59.94;101129.73;1762037;80;21160;-72
2022/09/09 02:54:45;;;;;;;10.80;6.30;;;;;;;9.98;59.87;101134.45;1762014;81;21010;-71
2022/09/09 02:57:19;;;;;;;12.15;6.78;;;;;;;9.97;59.86;101130.67;1766283;80;21088;-70
2022/09/09 02:59:48;;;;;;;9.43;5.87;;;;;;;9.96;60.02;101131.73;1792908;80;21050;-71
2022/09/09 03:02:14;;;;;;;10.23;6.65;;;;;;;9.95;60.11;101131.45;1793978;78;21073;-70
2022/09/09 03:04:44;;;;;;;12.95;7.47;;;;;;;9.92;60.26;101127.93;1825508;78;21147;-70
2022/09/09 03:07:12;;;;;;;11.55;6.67;;;;;;;9.89;60.49;101127.07;1792743;80;21029;-69
2022/09/09 03:09:39;;;;;;;11.30;6.60;;;;;;;9.87;60.63;101129.95;1793115;80;21489;-70
2022/09/09 03:12:06;;;;;;;8.65;5.80;;;;;;;9.88;60.74;101139.61;1792999;80;21160;-69
2022/09/09 03:14:34;;;;;;;10.20;5.70;;;;;;;9.85;60.77;101138.22;1825535;78;20987;-69
2022/09/09 03:17:03;;;;;;;8.28;4.90;;;;;;;9.87;60.78;101137.97;1792855;80;21151;-69
2022/09/09 03:19:32;;;;;;;7.42;4.60;;;;;;;9.86;60.89;101139.02;1793715;78;21117;-70
2022/09/09 03:22:00;;;;;;;9.83;4.92;;;;;;;9.83;60.92;101144.83;1825434;78;20991;-69
2022/09/09 03:24:28;;;;;;;6.87;4.35;;;;;;;9.84;60.85;101155.28;1793227;80;21029;-69
2022/09/09 03:26:55;;;;;;;7.90;4.10;;;;;;;9.87;60.80;101151.30;1793010;80;20977;-70
2022/09/09 03:29:23;;;;;;;9.53;4.67;;;;;;;9.91;60.64;101155.14;1792892;80;21889;-69
2022/09/09 03:31:52;;;;;;;8.05;5.03;;;;;;;9.93;60.60;101157.03;1806944;79;20993;-70
2022/09/09 03:34:18;;;;;;;6.55;4.58;;;;;;;9.92;60.60;101157.28;1782003;79;21004;-70
2022/09/09 03:36:48;;;;;;;6.92;4.20;;;;;;;9.95;60.57;101164.28;1803102;79;21012;-70
2022/09/09 03:39:15;;;;;;;10.15;4.83;;;;;;;9.98;60.54;101160.34;1791678;80;21554;-69
2022/09/09 03:41:46;;;;;;;7.42;4.70;;;;;;;10.01;60.54;101152.66;1825635;78;21862;-70
2022/09/09 03:44:11;;;;;;;7.45;4.35;;;;;;;10.02;60.53;101159.61;1825333;78;21090;-71
2022/09/09 03:46:40;;;;;;;6.90;4.60;;;;;;;10.05;60.52;101152.47;1825772;78;20945;-70
2022/09/09 03:49:07;;;;;;;7.40;4.95;;;;;;;10.09;60.40;101158.94;1825305;78;21480;-71
2022/09/09 03:51:36;;;;;;;7.10;4.53;;;;;;;10.17;60.27;101167.11;1825664;78;20953;-71
2022/09/09 03:54:04;;;;;;;6.87;4.60;;;;;;;10.26;60.14;101164.88;1824507;78;21214;-70
2022/09/09 03:56:32;;;;;;;6.10;4.08;;;;;;;10.32;59.99;101159.91;1825564;78;21036;-71
2022/09/09 03:58:59;;;;;;;7.15;4.58;;;;;;;10.33;59.81;101154.35;1825319;78;21071;-70
2022/09/09 04:01:26;;;;;;;9.63;4.92;;;;;;;10.31;59.76;101158.30;1825929;78;21492;-70
2022/09/09 04:03:57;;;;;;;7.28;4.55;;;;;;;10.26;59.85;101166.21;1825715;78;20996;-71
2022/09/09 04:06:22;;;;;;;6.47;4.47;;;;;;;10.28;59.92;101166.27;1825613;78;23221;-71
2022/09/09 04:08:49;;;;;;;12.80;5.08;;;;;;;10.37;59.94;101173.91;1825614;78;21485;-71
2022/09/09 04:11:16;;;;;;;10.75;5.33;;;;;;;10.45;59.80;101174.30;1824531;78;20954;-71
2022/09/09 04:13:44;;;;;;;9.25;4.70;;;;;;;10.49;59.73;101175.43;1825389;78;21033;-71
2022/09/09 04:16:15;;;;;;;9.98;4.80;;;;;;;10.50;59.68;101171.73;1825609;78;21410;-70
2022/09/09 04:18:43;;;;;;;8.93;5.17;;;;;;;10.55;59.55;101175.00;1801719;78;21293;-72
2022/09/09 04:21:12;;;;;;;11.97;4.78;;;;;;;10.60;59.37;101179.64;1793009;80;21012;-71
2022/09/09 04:23:39;;;;;;;8.00;4.55;;;;;;;10.63;59.36;101181.80;1792838;80;21144;-71
2022/09/09 04:26:05;;;;;;;9.23;4.78;;;;;;;10.70;59.28;101181.14;1793086;80;20946;-71
2022/09/09 04:28:35;;;;;;;8.35;5.17;;;;;;;10.74;59.18;101188.41;1792977;80;20996;-71
2022/09/09 04:31:12;;;;;;;9.95;5.08;;;;;;;10.76;59.02;101179.64;1825540;78;21123;-71
2022/09/09 04:33:40;;;;;;;8.23;5.00;;;;;;;10.68;58.75;101193.92;1790999;80;21038;-72
2022/09/09 04:36:07;;;;;;;7.78;4.83;;;;;;;10.58;58.88;101187.88;1825645;78;21008;-71
2022/09/09 04:38:36;;;;;;;7.65;4.75;;;;;;;10.53;59.00;101192.62;1793072;80;21063;-71
2022/09/09 04:41:03;;;;;;;8.98;4.72;;;;;;;10.48;59.11;101195.19;1793186;80;20944;-70
2022/09/09 04:43:32;;;;;;;7.55;4.30;;;;;;;10.48;59.25;101200.53;1825574;78;21515;-72
2022/09/09 04:46:00;;;;;;;7.22;4.90;;;;;;;10.53;59.45;101200.63;1794162;78;21000;-71
2022/09/09 04:48:27;;;;;;;7.60;4.50;;;;;;;10.64;59.39;101204.81;1793040;80;21038;-72
2022/09/09 04:51:06;;;;;;;9.33;5.30;;;;;;;10.75;59.27;101219.42;1825529;78;21474;-72
2022/09/09 04:53:34;;;;;;;7.85;4.55;;;;;;;10.86;59.09;101223.09;1793100;80;21080;-72
2022/09/09 04:56:07;;;;;;;7.95;4.78;;;;;;;11.01;58.99;101216.64;1793213;80;21788;-71
2022/09/09 04:58:36;;;;;;;9.93;5.03;;;;;;;11.15;58.69;101216.30;1825202;78;20971;-71
2022/09/09 05:01:15;;;;;;;7.83;4.97;;;;;;;11.26;58.64;101211.41;1793078;80;20996;-72
2022/09/09 05:03:47;;;;;;;8.25;4.92;;;;;;;11.38;58.02;101211.30;1761529;81;20950;-72
2022/09/09 05:06:19;;;;;;;8.20;4.87;;;;;;;11.47;57.65;101213.30;1793234;80;21002;-71
2022/09/09 05:08:49;;;;;;;10.72;5.37;;;;;;;11.57;56.94;101213.97;1761500;81;21130;-70
2022/09/09 05:11:25;;;;;;;5.97;3.70;;;;;;;11.61;56.68;101200.91;1793171;80;21054;-71
2022/09/09 05:13:58;;;;;;;7.37;4.75;;;;;;;11.68;56.68;101205.03;1775098;80;21593;-72
2022/09/09 05:16:26;;;;;;;6.45;4.35;;;;;;;11.72;56.48;101194.64;1761777;81;21114;-71
2022/09/09 05:18:53;;;;;;;6.78;4.62;;;;;;;11.81;56.67;101193.13;1821719;78;21114;-72
2022/09/09 05:21:23;;;;;;;7.08;4.72;;;;;;;11.92;56.04;101194.11;1825501;78;21154;-70
2022/09/09 05:23:51;;;;;;;7.22;4.33;;;;;;;12.01;55.83;101191.78;1793283;80;21048;-71
2022/09/09 05:26:21;;;;;;;7.17;4.37;;;;;;;12.06;55.46;101181.14;1793177;80;20995;-72
2022/09/09 05:28:48;;;;;;;6.80;4.30;;;;;;;12.14;55.52;101172.64;1802969;78;21553;-71
2022/09/09 05:31:18;;;;;;;6.33;4.22;;;;;;;12.21;55.01;101171.94;1761733;80;20973;-72
2022/09/09 05:33:47;;;;;;;7.08;4.28;;;;;;;12.29;54.55;101174.14;1793140;78;21120;-72
2022/09/09 05:36:17;;;;;;;8.10;4.90;;;;;;;12.41;54.69;101176.15;1793391;78;21025;-71
2022/09/09 05:38:45;;;;;;;7.00;3.95;;;;;;;12.53;54.76;101175.16;1810186;79;20962;-71
2022/09/09 05:41:15;;;;;;;6.37;4.35;;;;;;;12.66;54.82;101175.55;1807269;79;21410;-72
2022/09/09 05:43:44;;;;;;;6.12;3.65;;;;;;;12.81;54.73;101181.58;1793107;80;21040;-71
2022/09/09 05:46:14;;;;;;;6.70;4.08;;;;;;;13.01;54.72;101186.28;1779769;80;21097;-71
2022/09/09 05:48:43;;;;;;;6.12;4.20;;;;;;;13.16;54.01;101182.87;1792824;79;21012;-72
2022/09/09 05:51:12;;;;;;;7.67;3.90;;;;;;;13.29;53.89;101188.35;1793190;80;21013;-73
2022/09/09 05:53:39;;;;;;;6.58;4.15;;;;;;;13.43;53.55;101189.53;1793363;80;21055;-72
2022/09/09 05:56:12;;;;;;;6.22;3.83;;;;;;;13.63;53.36;101181.30;1793388;80;20977;-72
2022/09/09 05:58:39;;;;;;;5.80;4.13;;;;;;;13.84;53.25;101186.47;1793087;80;21270;-72
2022/09/09 06:01:10;;;;;;;6.50;3.90;;;;;;;14.06;52.83;101193.54;1793247;79;21174;-72
2022/09/09 06:03:39;;;;;;;6.13;3.63;;;;;;;14.24;52.19;101197.59;1793099;80;21623;-71
2022/09/09 06:06:09;;;;;;;6.23;3.80;;;;;;;14.37;51.52;101205.69;1793087;79;21099;-71
2022/09/09 06:08:39;;;;;;;5.33;3.20;;;;;;;14.45;50.50;101207.33;1793408;79;21239;-71
2022/09/09 06:11:18;;;;;;;5.43;3.30;;;;;;;14.45;50.23;101207.87;1793271;79;21851;-71
2022/09/09 06:13:44;;;;;;;7.37;3.87;;;;;;;14.42;49.95;101213.77;1822626;78;21399;-73
2022/09/09 06:16:14;;;;;;;6.40;3.70;;;;;;;14.34;50.03;101200.84;1825681;78;21221;-74
2022/09/09 06:18:42;;;;;;;5.47;3.60;;;;;;;14.28;49.78;101194.14;1793410;80;21762;-72
2022/09/09 06:21:19;;;;;;;6.27;3.40;;;;;;;14.37;50.28;101197.62;1825712;78;21716;-71
2022/09/09 06:23:47;;;;;;;7.10;3.17;;;;;;;14.49;50.07;101198.99;1792693;80;22082;-72
2022/09/09 06:26:25;;;;;;;6.67;3.60;;;;;;;14.68;50.06;101197.97;1823744;78;21237;-73
2022/09/09 06:28:54;;;;;;;6.27;3.40;;;;;;;14.86;49.82;101195.27;1793060;80;21830;-72
2022/09/09 06:31:23;;;;;;;6.33;3.50;;;;;;;15.02;49.20;101194.72;1825755;78;21755;-72
2022/09/09 06:33:51;;;;;;;5.40;3.30;;;;;;;15.12;48.74;101189.87;1793047;80;21087;-73
2022/09/09 06:36:23;;;;;;;4.50;2.90;;;;;;;15.23;48.23;101199.52;1793199;80;21452;-73
2022/09/09 06:38:50;;;;;;;4.70;3.10;;;;;;;15.35;47.81;101201.39;1824453;78;21262;-72
2022/09/09 06:41:21;;;;;;;5.93;3.40;;;;;;;15.46;47.58;101206.20;1793175;80;21835;-72
2022/09/09 06:43:48;;;;;;;5.13;3.30;;;;;;;15.55;46.97;101201.06;1793790;78;21802;-72
2022/09/09 06:46:21;;;;;;;7.97;3.30;;;;;;;15.61;46.46;101197.28;1793243;80;21069;-71
2022/09/09 06:48:50;;;;;;;5.63;2.80;;;;;;;15.66;46.42;101198.59;1825464;78;21285;-72
2022/09/09 06:51:20;;;;;;;5.43;3.10;;;;;;;15.66;46.18;101194.07;1793201;80;21930;-74
2022/09/09 06:53:50;;;;;;;4.65;2.95;;;;;;;15.78;46.34;101195.08;1793152;80;21363;-72
2022/09/09 06:56:33;;;;;;;5.50;2.60;;;;;;;15.95;46.32;101196.08;1793249;80;21030;-72
2022/09/09 06:59:04;;;;;;;4.50;2.80;;;;;;;16.15;45.64;101197.31;1791879;80;21274;-71
2022/09/09 07:01:34;;;;;;;4.93;2.60;;;;;;;16.38;44.81;101197.72;1824543;78;21858;-70
2022/09/09 07:04:04;;;;;;;4.77;2.57;;;;;;;16.57;44.89;101200.55;1793448;80;21257;-72
2022/09/09 07:06:34;;;;;;;4.03;2.40;;;;;;;16.70;44.17;101203.16;1793835;80;21231;-74
2022/09/09 07:09:05;;;;;;;4.30;2.70;;;;;;;16.91;43.34;101197.86;1826412;78;21295;-72
2022/09/09 07:11:41;;;;;;;4.30;2.45;;;;;;;16.91;43.34;101197.86;1793640;80;21357;-70
2022/09/09 07:14:08;;;;;;;4.73;2.10;;;;;;;17.02;42.98;101203.45;1793198;80;21156;-71
2022/09/09 07:16:37;;;;;;;4.30;2.70;;;;;;;17.33;43.00;101190.98;1825793;78;21864;-73
2022/09/09 07:19:04;;;;;;;4.03;2.40;;;;;;;17.33;43.00;101190.98;1794137;78;21501;-74
2022/09/09 07:21:31;;;;;;;5.03;2.43;;;;;;;17.41;42.58;101190.38;1793429;80;21467;-74
2022/09/09 07:24:01;;;;;;;4.30;2.20;;;;;;;17.49;42.16;101197.83;1793360;80;21800;-74
2022/09/09 07:26:30;;;;;;;3.47;2.10;;;;;;;17.57;41.21;101189.11;1787141;80;22165;-73
2022/09/09 07:28:57;;;;;;;6.57;2.30;;;;;;;17.57;41.21;101189.11;1793004;80;21685;-72
2022/09/09 07:31:31;;;;;;;4.13;2.07;;;;;;;17.82;40.61;101185.84;1760454;81;21682;-71
2022/09/09 07:33:59;;;;;;;5.27;1.70;;;;;;;17.82;40.61;101185.84;1793627;80;22112;-73
2022/09/09 07:36:32;;;;;;;4.03;1.90;;;;;;;17.94;40.00;101185.44;1789923;80;21686;-74
2022/09/09 07:39:05;;;;;;;4.07;1.70;;;;;;;18.00;40.11;101182.92;1825949;78;21723;-74
2022/09/09 07:41:41;;;;;;;3.60;2.10;;;;;;;18.11;39.65;101190.34;1825935;78;22080;-73
2022/09/09 07:44:11;;;;;;;2.70;1.60;;;;;;;18.19;40.07;101186.97;1822671;78;21715;-74
2022/09/09 07:46:39;;;;;;;2.83;1.77;;;;;;;18.27;39.07;101184.97;1810057;78;21652;-72
2022/09/09 07:49:07;;;;;;;3.17;1.70;;;;;;;18.29;39.66;101182.75;1825832;78;21048;-71
2022/09/09 07:51:37;;;;;;;3.47;1.57;;;;;;;18.32;39.51;101178.11;1824590;78;22304;-72
2022/09/09 07:54:09;;;;;;;3.83;1.60;;;;;;;18.45;39.09;101179.27;1825670;78;21612;-72
2022/09/09 07:56:38;;;;;;;2.70;1.60;;;;;;;18.59;38.68;101183.38;1825664;78;21772;-72
2022/09/09 07:59:06;;;;;;;3.17;1.50;;;;;;;18.69;38.64;101185.91;1811829;78;21640;-74
2022/09/09 08:01:39;;;;;;;3.67;1.73;;;;;;;18.65;38.04;101180.30;1825928;78;20965;-74
2022/09/09 08:04:16;;;;;;;3.13;1.63;;;;;;;18.60;37.43;101174.98;1825395;78;21143;-74
2022/09/09 08:06:55;;;;;;;3.77;1.70;;;;;;;18.61;37.63;101181.99;1825797;78;21449;-73
2022/09/09 08:09:28;;;;;;;3.50;1.50;;;;;;;18.73;38.04;101174.25;1824552;78;21063;-74
2022/09/09 08:11:58;;;;;;;2.13;1.43;;;;;;;18.89;37.86;101173.44;1825699;78;21158;-72
2022/09/09 08:14:26;;;;;;;3.70;1.70;;;;;;;19.07;36.51;101175.02;1790963;78;21084;-73
2022/09/09 08:16:54;;;;;;;3.20;1.30;;;;;;;19.20;36.24;101169.61;1793122;80;21306;-71
2022/09/09 08:19:23;;;;;;;3.10;1.27;;;;;;;19.29;35.46;101175.70;1793106;80;20986;-73
2022/09/09 08:21:50;;;;;;;2.40;1.30;;;;;;;19.35;35.50;101169.89;1793282;80;21063;-74
2022/09/09 08:24:19;;;;;;;3.47;1.37;;;;;;;19.47;35.26;101163.95;1793354;80;21462;-71
2022/09/09 08:26:49;;;;;;;2.83;1.43;;;;;;;19.63;35.67;101162.56;1783333;79;21038;-72
2022/09/09 08:29:17;;;;;;;3.70;1.20;;;;;;;19.85;35.20;101160.48;1786866;80;21082;-73
2022/09/09 08:31:51;;;;;;;2.80;1.40;;;;;;;19.98;34.59;101162.11;1787171;80;20987;-73
2022/09/09 08:34:20;;;;;;;4.60;1.40;;;;;;;20.07;34.01;101159.73;1787477;80;21051;-73
2022/09/09 08:36:58;;;;;;;2.80;1.20;;;;;;;20.12;32.98;101161.51;1787822;80;21051;-73
2022/09/09 08:39:38;;;;;;;1.73;1.13;;;;;;;20.13;33.34;101174.75;1761743;80;21000;-74
2022/09/09 08:42:36;;;;;;;2.67;1.30;;;;;;;20.12;32.73;101166.38;1787268;80;21210;-72
2022/09/09 08:45:35;;;;;;;2.07;1.13;;;;;;;20.12;32.89;101168.29;1752623;80;20960;-73
2022/09/09 08:48:27;;;;;;;3.03;1.10;;;;;;;20.19;33.25;101165.95;1792528;80;20984;-71
2022/09/09 08:51:01;;;;;;;2.50;1.10;;;;;;;20.23;32.61;101168.84;1793226;79;21099;-73
2022/09/09 08:53:34;;;;;;;2.37;1.40;;;;;;;20.32;32.67;101166.45;1799333;78;20979;-72
2022/09/09 08:56:05;;;;;;;3.10;1.23;;;;;;;20.38;32.95;101169.30;1825784;78;22241;-73
2022/09/09 08:58:36;;;;;;;2.83;1.10;;;;;;;20.51;32.39;101157.37;1824323;78;21102;-73
2022/09/09 09:01:28;;;;;;;3.00;1.10;;;;;;;20.52;32.27;101152.18;1798141;78;20951;-73
2022/09/09 09:04:29;;;;;;;2.00;1.10;;;;;;;20.59;32.79;101156.61;1825851;78;20995;-73
2022/09/09 09:07:35;;;;;;;4.43;1.20;;;;;;;20.68;32.11;101147.97;1825900;78;20986;-73
2022/09/09 09:10:24;;;;;;;2.93;1.30;;;;;;;20.71;32.27;101141.13;1780114;80;21491;-72
2022/09/09 09:12:51;;;;;;;2.63;1.27;;;;;;;20.75;31.87;101138.83;1746904;81;21522;-72
2022/09/09 09:15:23;;;;;;;3.40;1.30;;;;;;;20.82;31.64;101128.31;1754428;80;21115;-73
2022/09/09 09:17:50;;;;;;;4.67;1.30;;;;;;;20.90;31.93;101125.98;1799904;79;21019;-73
2022/09/09 09:20:21;;;;;;;3.43;1.40;;;;;;;21.01;31.36;101134.87;1766672;80;21078;-70
2022/09/09 09:22:50;;;;;;;;;;;;;;;21.06;31.13;101126.61;1789285;80;22864;-72
2022/09/09 09:25:21;;;;;;;2.50;1.20;;;;;;;21.10;30.70;101132.77;1763308;80;20435;-74
2022/09/09 09:27:56;;;;;;;1.90;1.10;;;;;;;21.12;30.36;101123.17;1793140;80;21086;-72
2022/09/09 09:30:26;;;;;;;2.63;1.10;;;;;;;21.14;30.73;101133.73;1760231;81;21003;-72
2022/09/09 09:33:03;;;;;;;2.10;1.20;;;;;;;21.19;30.33;101138.48;1793239;80;21141;-71
2022/09/09 09:35:30;;;;;;;3.80;1.30;;;;;;;21.25;29.68;101130.41;1761257;80;21193;-72
2022/09/09 09:37:56;;;;;;;2.33;1.27;;;;;;;21.29;30.39;101134.12;1793075;80;21068;-73
2022/09/09 09:40:24;;;;;;;3.33;1.33;;;;;;;21.52;30.34;101135.41;1793198;80;21517;-72
2022/09/09 09:42:55;;;;;;;3.13;1.17;;;;;;;21.68;29.73;101141.97;1793059;80;20969;-71
2022/09/09 09:45:31;;;;;;;2.30;1.10;;;;;;;21.77;29.79;101146.06;1793540;80;21434;-73
2022/09/09 09:48:08;;;;;;;2.50;1.13;;;;;;;21.83;29.33;101133.92;1777720;80;22144;-71
2022/09/09 09:51:03;;;;;;;4.20;1.20;;;;;;;21.92;28.50;101136.66;1793165;80;21037;-72
2022/09/09 09:53:33;;;;;;;2.77;1.23;;;;;;;21.94;29.12;101128.96;1785672;80;20966;-73
2022/09/09 09:56:06;;;;;;;4.07;1.17;;;;;;;21.88;28.41;101126.16;1825954;78;20972;-72
2022/09/09 09:58:50;;;;;;;2.67;1.20;;;;;;;21.85;28.77;101119.99;1825518;78;21007;-73
2022/09/09 10:01:29;;;;;;;1.30;0.80;;;;;;;21.86;28.99;101131.13;1825757;78;22026;-72
2022/09/09 10:04:03;;;;;;;1.57;1.00;;;;;;;21.96;28.21;101119.38;1762766;80;21062;-72
2022/09/09 10:06:37;;;;;;;2.40;1.33;;;;;;;22.04;27.43;101122.41;1826056;78;21052;-70
2022/09/09 10:09:08;;;;;;;1.80;1.00;;;;;;;21.95;27.46;101125.94;1825044;78;20942;-71
2022/09/09 10:12:08;;;;;;;1.72;1.00;;;;;;;21.91;27.85;101132.31;1784125;80;20969;-72
2022/09/09 10:14:47;;;;;;;2.20;1.10;;;;;;;21.96;28.17;101128.89;1793216;80;21174;-71
2022/09/09 10:17:37;;;;;;;2.07;1.17;;;;;;;22.10;28.45;101127.36;1825543;78;20987;-72
2022/09/09 10:20:30;;;;;;;3.43;1.10;;;;;;;22.24;28.42;101125.32;1793243;80;20968;-71
2022/09/09 10:23:14;;;;;;;2.00;1.17;;;;;;;22.34;27.29;101126.91;1792708;79;21043;-70
2022/09/09 10:26:06;;;;;;;3.67;1.20;;;;;;;22.23;27.69;101132.43;1760634;78;21033;-72
2022/09/09 10:29:04;;;;;;;;;;;;;;;22.14;28.19;101128.87;1816713;78;21134;-73
2022/09/09 10:31:59;;;;;;;2.87;1.30;;;;;;;22.11;27.92;101124.08;1793096;80;20439;-73
2022/09/09 10:34:35;;;;;;;3.40;1.30;;;;;;;22.15;28.08;101120.98;1793310;80;21041;-73
2022/09/09 10:37:08;;;;;;;4.67;1.30;;;;;;;22.21;27.97;101118.34;1814643;78;21039;-72
2022/09/09 10:39:40;;;;;;;3.37;1.20;;;;;;;22.19;27.08;101114.59;1810104;78;21096;-72
2022/09/09 10:42:12;;;;;;;1.70;1.05;;;;;;;22.17;27.62;101115.46;1797220;78;21791;-73
2022/09/09 10:44:51;;;;;;;3.07;1.10;;;;;;;22.27;27.62;101107.53;1793508;80;21070;-72
2022/09/09 10:47:35;;;;;;;2.30;1.10;;;;;;;22.40;27.27;101113.91;1825569;78;22166;-72
2022/09/09 10:50:22;;;;;;;2.80;1.10;;;;;;;22.53;26.72;101110.77;1825791;78;21053;-72
2022/09/09 10:53:03;;;;;;;1.90;1.20;;;;;;;22.57;26.91;101108.98;1824989;78;21062;-73
2022/09/09 10:55:35;;;;;;;3.07;1.40;;;;;;;22.54;26.98;101097.38;1825834;78;21136;-72
2022/09/09 10:58:03;;;;;;;2.67;1.30;;;;;;;22.52;26.87;101103.73;1825523;78;21007;-72
2022/09/09 11:00:43;;;;;;;1.93;1.00;;;;;;;22.43;27.25;101099.09;1825065;78;20948;-73
2022/09/09 11:03:26;;;;;;;2.13;1.03;;;;;;;22.38;27.11;101101.20;1825605;78;21011;-72
2022/09/09 11:06:00;;;;;;;3.03;1.00;;;;;;;22.30;27.23;101102.01;1825910;78;21443;-73
2022/09/09 11:08:29;;;;;;;3.30;1.30;;;;;;;22.20;27.22;101115.38;1825680;78;21146;-71
2022/09/09 11:11:36;;;;;;;2.73;1.40;;;;;;;22.14;27.76;101123.44;1825752;78;20960;-72
2022/09/09 11:28:16;;;;;;;2.83;1.20;;;;;;;22.62;26.41;101109.62;1819896;78;26847;-72
2022/09/09 11:30:54;;;;;;;2.67;1.10;;;;;;;22.57;26.62;101122.60;1790748;80;20970;-70
2022/09/09 11:33:57;;;;;;;3.17;1.30;;;;;;;22.51;26.59;101119.27;1760897;80;21176;-70
2022/09/09 11:36:33;;;;;;;2.23;1.13;;;;;;;22.38;27.04;101115.61;1761256;80;21061;-70
2022/09/09 11:39:08;;;;;;;1.97;1.00;;;;;;;22.39;27.14;101117.77;1773567;80;21023;-71
2022/09/09 11:41:37;;;;;;;3.50;1.10;;;;;;;22.41;26.84;101119.62;1745340;80;21510;-71
2022/09/09 11:44:20;;;;;;;1.90;1.10;;;;;;;22.36;26.90;101121.92;1774688;77;21476;-71
2022/09/09 11:46:49;;;;;;;2.07;1.10;;;;;;;22.32;26.21;101118.83;1779007;78;21251;-71
2022/09/09 11:49:45;;;;;;;3.10;1.20;;;;;;;22.22;26.02;101110.43;1779895;78;21098;-71
2022/09/09 11:52:25;;;;;;;2.07;1.03;;;;;;;22.09;26.33;101110.02;1782781;78;21062;-71
2022/09/09 11:54:52;;;;;;;2.33;1.20;;;;;;;22.08;26.82;101105.67;1740331;81;21098;-72
2022/09/09 11:57:35;;;;;;;5.73;1.20;;;;;;;22.06;26.56;101109.30;1784534;79;21010;-71
2022/09/09 12:00:04;;;;;;;2.03;1.00;;;;;;;22.01;26.77;101105.63;1745776;81;21115;-70
2022/09/09 12:02:34;;;;;;;1.85;1.05;;;;;;;22.06;27.06;101108.73;1775984;80;26553;-71
2022/09/09 12:05:12;;;;;;;3.00;1.07;;;;;;;22.00;26.76;101097.77;1779463;80;21151;-70
2022/09/09 12:07:44;;;;;;;2.97;1.17;;;;;;;21.92;26.58;101092.58;1746491;80;21446;-70
2022/09/09 12:10:29;;;;;;;3.33;1.02;;;;;;;21.91;27.45;101088.80;1779547;78;21500;-71
2022/09/09 12:12:58;;;;;;;2.53;1.20;;;;;;;21.89;27.70;101090.50;1786414;80;21769;-71
2022/09/09 12:15:28;;;;;;;2.23;1.10;;;;;;;21.84;27.08;101078.41;1771458;80;21048;-70